Time;durP1;ratioP1;P1;durP2;ratioP2;P2;SDS_P1;SDS_P2;PMS_P1;PMS_P2;Temp;Humidity;BMP_temperature;BMP_pressure;BME280_temperature;BME280_humidity;BME280_pressure;Samples;Min_cycle;Max_cycle;Signal;HPM_P1;HPM_P2
2022/02/28 00:02:05;;;;;;;27.13;15.73;;;;;;;1.25;88.72;103635.50;5050661;28;20937;-75
2022/02/28 00:04:30;;;;;;;25.80;14.97;;;;;;;1.25;88.45;103638.03;5032225;28;20662;-74
2022/02/28 00:06:56;;;;;;;27.67;15.77;;;;;;;1.31;89.99;103633.59;5032539;28;20194;-74
2022/02/28 00:09:21;;;;;;;30.40;15.20;;;;;;;1.31;90.31;103628.56;5050310;28;20219;-74
2022/02/28 00:11:47;;;;;;;30.57;16.73;;;;;;;1.28;90.23;103629.13;5050224;28;20227;-74
2022/02/28 00:14:12;;;;;;;31.90;15.83;;;;;;;1.27;89.93;103634.03;5032193;28;20655;-74
2022/02/28 00:16:39;;;;;;;29.93;16.23;;;;;;;1.26;90.57;103628.09;5050347;28;20227;-74
2022/02/28 00:19:05;;;;;;;28.43;15.53;;;;;;;1.16;89.88;103627.91;5049942;28;20196;-75
2022/02/28 00:21:30;;;;;;;32.47;16.93;;;;;;;1.19;90.63;103630.72;5032160;28;20456;-73
2022/02/28 00:23:55;;;;;;;28.20;16.23;;;;;;;1.22;90.65;103623.47;5048768;28;20229;-75
2022/02/28 00:26:21;;;;;;;26.87;16.30;;;;;;;1.23;90.90;103625.25;5042257;28;20227;-74
2022/02/28 00:28:46;;;;;;;27.60;15.43;;;;;;;1.21;91.25;103623.31;5049958;28;20310;-74
2022/02/28 00:31:14;;;;;;;29.97;17.33;;;;;;;1.22;91.12;103631.06;5050016;28;20204;-75
2022/02/28 00:33:39;;;;;;;28.50;16.33;;;;;;;1.19;91.15;103623.16;5031817;28;20281;-73
2022/02/28 00:36:05;;;;;;;26.53;16.33;;;;;;;1.20;91.42;103622.44;5032086;28;20190;-74
2022/02/28 00:38:32;;;;;;;29.97;16.30;;;;;;;1.18;91.37;103618.88;5032161;28;20177;-74
2022/02/28 00:40:59;;;;;;;33.50;17.67;;;;;;;1.21;91.42;103620.78;5050083;28;20197;-73
2022/02/28 00:43:25;;;;;;;31.60;17.80;;;;;;;1.20;91.60;103619.94;5032578;28;20189;-74
2022/02/28 00:45:51;;;;;;;28.93;16.40;;;;;;;1.15;91.06;103616.00;5019514;28;20198;-74
2022/02/28 00:48:17;;;;;;;33.63;17.53;;;;;;;1.18;91.69;103618.88;5029841;28;20469;-74
2022/02/28 00:50:42;;;;;;;30.57;17.33;;;;;;;1.11;91.23;103618.09;5012179;28;20683;-75
2022/02/28 00:53:07;;;;;;;30.67;17.50;;;;;;;1.14;91.02;103615.88;5011886;28;20218;-74
2022/02/28 00:55:33;;;;;;;34.23;16.90;;;;;;;1.09;91.26;103610.38;5029728;28;20265;-74
2022/02/28 00:57:58;;;;;;;29.27;16.93;;;;;;;1.15;91.02;103615.16;5012426;28;20178;-75
2022/02/28 01:00:24;;;;;;;28.30;16.33;;;;;;;1.05;91.11;103613.31;4995924;28;20194;-74
2022/02/28 01:02:51;;;;;;;29.47;16.17;;;;;;;1.05;91.12;103615.84;5012211;28;20198;-74
2022/02/28 01:05:18;;;;;;;30.63;17.60;;;;;;;1.06;91.90;103617.59;4995770;28;20197;-74
2022/02/28 01:07:44;;;;;;;30.60;16.37;;;;;;;1.06;91.11;103615.09;5011956;28;20188;-75
2022/02/28 01:10:13;;;;;;;32.70;17.43;;;;;;;1.07;91.65;103611.84;5012207;28;20226;-74
2022/02/28 01:12:39;;;;;;;32.70;17.00;;;;;;;1.04;91.91;103606.50;4995593;28;20453;-75
2022/02/28 01:15:07;;;;;;;31.23;17.13;;;;;;;0.98;91.68;103610.00;5029805;28;20182;-74
2022/02/28 01:17:32;;;;;;;32.30;17.93;;;;;;;1.09;91.24;103607.84;5011979;28;20182;-74
2022/02/28 01:19:58;;;;;;;31.93;17.73;;;;;;;1.03;91.54;103598.75;5012244;28;20178;-75
2022/02/28 01:22:25;;;;;;;25.37;15.90;;;;;;;0.96;91.55;103596.38;5011757;28;20709;-74
2022/02/28 01:24:50;;;;;;;32.47;16.90;;;;;;;1.01;91.49;103598.59;5030001;28;20182;-74
2022/02/28 01:27:16;;;;;;;34.80;18.43;;;;;;;1.05;91.05;103597.31;5011928;28;20814;-75
2022/02/28 01:29:41;;;;;;;31.90;17.83;;;;;;;1.08;91.70;103598.50;5011759;28;20222;-74
2022/02/28 01:32:07;;;;;;;33.20;17.93;;;;;;;1.08;91.70;103603.53;5032954;28;20222;-74
2022/02/28 01:34:32;;;;;;;33.73;17.53;;;;;;;1.07;92.02;103595.81;5017502;28;20190;-75
2022/02/28 01:36:57;;;;;;;29.97;17.30;;;;;;;1.10;91.26;103599.53;5022694;28;20684;-75
2022/02/28 01:39:23;;;;;;;31.20;16.77;;;;;;;1.04;90.85;103598.91;5034218;28;20175;-74
2022/02/28 01:41:48;;;;;;;30.53;18.30;;;;;;;1.00;91.50;103601.88;5033877;28;20621;-74
2022/02/28 01:44:14;;;;;;;31.97;17.77;;;;;;;0.98;92.03;103595.78;4999696;28;20185;-75
2022/02/28 01:46:40;;;;;;;31.30;17.60;;;;;;;1.01;91.46;103596.06;5015793;28;20684;-73
2022/02/28 01:49:06;;;;;;;32.60;17.40;;;;;;;0.97;91.14;103594.00;5015693;28;20644;-73
2022/02/28 01:51:35;;;;;;;30.63;17.43;;;;;;;0.91;91.40;103585.81;5015624;28;20210;-74
2022/02/28 01:54:01;;;;;;;31.07;17.40;;;;;;;0.91;91.51;103600.94;5001215;28;20556;-74
2022/02/28 01:56:26;;;;;;;31.23;16.97;;;;;;;0.84;91.42;103597.63;5015460;28;20186;-74
2022/02/28 01:58:51;;;;;;;33.17;17.50;;;;;;;0.70;90.88;103596.25;4999057;28;20179;-73
2022/02/28 02:01:17;;;;;;;34.50;18.30;;;;;;;0.72;91.26;103602.31;5015049;28;20205;-74
2022/02/28 02:03:42;;;;;;;29.83;16.97;;;;;;;0.75;91.18;103600.13;5014950;28;20305;-73
2022/02/28 02:06:09;;;;;;;28.97;17.17;;;;;;;0.69;91.37;103596.94;5015210;28;20206;-74
2022/02/28 02:08:38;;;;;;;32.63;17.50;;;;;;;0.68;90.82;103601.84;5017113;28;20222;-74
2022/02/28 02:11:04;;;;;;;30.27;16.67;;;;;;;0.63;90.36;103598.84;5052824;28;20937;-74
2022/02/28 02:13:31;;;;;;;29.57;16.97;;;;;;;0.55;90.57;103597.16;5034306;28;20494;-74
2022/02/28 02:15:58;;;;;;;32.60;18.10;;;;;;;0.60;90.79;103600.16;5034910;28;20939;-74
2022/02/28 02:18:24;;;;;;;28.33;16.37;;;;;;;0.66;90.57;103601.69;5035464;28;20991;-74
2022/02/28 02:20:50;;;;;;;28.77;16.67;;;;;;;0.56;90.29;103595.53;5035347;28;20516;-74
2022/02/28 02:23:15;;;;;;;30.67;17.43;;;;;;;0.48;90.26;103597.28;5034666;28;20300;-74
2022/02/28 02:25:43;;;;;;;28.63;16.37;;;;;;;0.49;90.87;103598.19;5018662;28;20523;-74
2022/02/28 02:28:15;;;;;;;36.07;17.97;;;;;;;0.55;90.42;103599.69;5014930;28;20210;-75
2022/02/28 02:30:46;;;;;;;32.93;17.87;;;;;;;0.47;90.10;103594.59;5014820;28;20445;-75
2022/02/28 02:33:11;;;;;;;28.53;17.17;;;;;;;0.40;90.55;103595.59;5014575;28;20495;-74
2022/02/28 02:35:37;;;;;;;31.57;17.10;;;;;;;0.34;89.84;103597.47;4998705;28;20433;-74
2022/02/28 02:38:02;;;;;;;31.03;17.60;;;;;;;0.34;90.28;103594.97;5032654;28;20270;-73
2022/02/28 02:40:28;;;;;;;35.13;18.00;;;;;;;0.28;89.44;103593.44;4999334;28;20217;-74
2022/02/28 02:42:53;;;;;;;29.63;16.50;;;;;;;0.20;89.69;103587.59;5014208;28;20211;-74
2022/02/28 02:45:19;;;;;;;31.77;17.27;;;;;;;0.20;89.31;103600.19;5014138;28;20190;-74
2022/02/28 02:47:44;;;;;;;28.90;17.23;;;;;;;0.16;90.16;103600.59;5013810;28;20195;-73
2022/02/28 02:50:13;;;;;;;30.43;17.43;;;;;;;0.11;89.21;103601.75;5013911;28;20216;-74
2022/02/28 02:52:39;;;;;;;30.87;16.43;;;;;;;0.15;89.66;103603.84;5013786;28;20488;-73
2022/02/28 02:55:06;;;;;;;32.00;17.87;;;;;;;0.08;89.25;103598.88;5013719;28;21039;-74
2022/02/28 02:57:31;;;;;;;29.97;16.63;;;;;;;-0.04;89.04;103601.00;5031552;28;20669;-74
2022/02/28 03:00:03;;;;;;;31.50;17.00;;;;;;;-0.07;88.66;103598.19;5013726;28;20277;-74
2022/02/28 03:02:32;;;;;;;29.80;16.97;;;;;;;-0.09;88.52;103601.28;5013502;28;20617;-73
2022/02/28 03:05:00;;;;;;;30.07;16.63;;;;;;;-0.16;88.45;103597.22;5013930;28;20434;-73
2022/02/28 03:07:25;;;;;;;29.53;16.00;;;;;;;-0.18;88.42;103596.16;4997528;28;20971;-75
2022/02/28 03:09:51;;;;;;;28.03;15.67;;;;;;;-0.24;87.90;103598.03;5013945;28;20218;-75
2022/02/28 03:12:17;;;;;;;32.20;17.10;;;;;;;-0.23;87.84;103597.28;5031714;28;20260;-74
2022/02/28 03:14:45;;;;;;;28.50;16.53;;;;;;;-0.28;87.95;103600.03;5013342;28;20217;-74
2022/02/28 03:17:10;;;;;;;26.57;15.70;;;;;;;-0.31;87.60;103597.22;5018096;28;20797;-74
2022/02/28 03:19:36;;;;;;;29.83;16.97;;;;;;;-0.31;87.90;103595.56;5033042;28;20439;-75
2022/02/28 03:22:01;;;;;;;28.40;16.33;;;;;;;-0.34;87.78;103596.88;5033136;28;20209;-74
2022/02/28 03:24:29;;;;;;;29.17;16.97;;;;;;;-0.40;88.51;103593.72;5032949;28;20273;-74
2022/02/28 03:26:55;;;;;;;32.27;17.57;;;;;;;-0.38;88.63;103587.22;5033133;28;20432;-74
2022/02/28 03:29:20;;;;;;;29.13;16.87;;;;;;;-0.40;88.69;103586.16;5032757;28;20213;-74
2022/02/28 03:31:46;;;;;;;34.37;16.77;;;;;;;-0.38;88.77;103589.72;5011903;28;20209;-74
2022/02/28 03:34:14;;;;;;;28.73;17.10;;;;;;;-0.39;89.47;103588.84;5015422;28;20342;-73
2022/02/28 03:36:41;;;;;;;30.57;17.27;;;;;;;-0.47;89.27;103587.13;4996669;28;20437;-74
2022/02/28 03:39:13;;;;;;;36.90;17.93;;;;;;;-0.49;88.35;103588.56;5013056;28;20467;-73
2022/02/28 03:41:38;;;;;;;32.27;17.63;;;;;;;-0.56;88.58;103586.16;5013109;28;20527;-74
2022/02/28 03:44:04;;;;;;;31.13;16.97;;;;;;;-0.63;89.52;103588.72;5012769;28;20830;-74
2022/02/28 03:46:32;;;;;;;30.07;16.83;;;;;;;-0.56;89.24;103581.13;5012838;28;20240;-73
2022/02/28 03:49:17;;;;;;;28.70;16.40;;;;;;;-0.59;89.06;103583.28;5015735;28;20626;-74
2022/02/28 03:52:01;;;;;;;32.80;17.20;;;;;;;-0.59;89.27;103585.81;5030600;28;20502;-74
2022/02/28 03:54:46;;;;;;;34.37;17.27;;;;;;;-0.60;88.89;103583.13;5015072;28;20502;-75
2022/02/28 03:57:12;;;;;;;31.50;17.13;;;;;;;-0.61;89.46;103576.31;5012869;28;20535;-73
2022/02/28 03:59:37;;;;;;;34.40;17.87;;;;;;;-0.63;89.66;103575.28;5015464;28;20185;-74
2022/02/28 04:02:03;;;;;;;34.40;18.00;;;;;;;-0.59;89.41;103577.38;5050372;28;20201;-73
2022/02/28 04:04:33;;;;;;;33.60;18.73;;;;;;;-0.57;90.04;103570.88;5016697;28;20186;-75
2022/02/28 04:06:58;;;;;;;36.97;19.63;;;;;;;-0.55;90.38;103564.41;5016113;28;20825;-73
2022/02/28 04:09:25;;;;;;;34.17;18.87;;;;;;;-0.59;90.43;103569.84;5015974;28;20241;-76
2022/02/28 04:11:51;;;;;;;33.70;19.63;;;;;;;-0.54;90.25;103561.16;5032219;28;21124;-73
2022/02/28 04:14:16;;;;;;;40.97;19.53;;;;;;;-0.57;90.52;103571.78;5030253;28;20197;-74
2022/02/28 04:16:41;;;;;;;34.73;19.00;;;;;;;-0.59;90.54;103564.81;5016054;28;20198;-75
2022/02/28 04:19:26;;;;;;;34.17;19.00;;;;;;;-0.61;90.22;103562.13;5035464;28;20285;-74
2022/02/28 04:21:52;;;;;;;35.40;19.57;;;;;;;-0.58;91.06;103564.06;5049256;28;20539;-75
2022/02/28 04:24:17;;;;;;;38.53;19.37;;;;;;;-0.59;90.99;103567.34;5032150;28;20190;-73
2022/02/28 04:26:46;;;;;;;38.97;19.37;;;;;;;-0.62;91.01;103572.03;5032471;28;20251;-73
2022/02/28 04:29:14;;;;;;;33.77;19.77;;;;;;;-0.55;91.14;103562.78;5032259;28;20472;-73
2022/02/28 04:31:43;;;;;;;36.90;19.53;;;;;;;-0.52;91.43;103559.69;5032134;28;20626;-73
2022/02/28 04:34:09;;;;;;;39.20;20.73;;;;;;;-0.48;91.73;103564.31;5032002;28;20451;-73
2022/02/28 04:36:35;;;;;;;40.40;20.93;;;;;;;-0.53;92.24;103563.84;5012518;28;20448;-73
2022/02/28 04:39:00;;;;;;;39.30;21.07;;;;;;;-0.54;92.46;103561.16;5012170;28;20213;-74
2022/02/28 04:41:27;;;;;;;41.60;21.43;;;;;;;-0.56;92.42;103563.50;4996104;28;20292;-73
2022/02/28 04:43:53;;;;;;;42.00;21.30;;;;;;;-0.54;92.46;103558.66;5028936;28;20540;-74
2022/02/28 04:46:21;;;;;;;47.50;23.40;;;;;;;-0.42;93.09;103557.41;4996375;28;20755;-74
2022/02/28 04:48:46;;;;;;;46.43;23.50;;;;;;;-0.48;93.08;103560.19;5012208;28;20465;-73
2022/02/28 04:51:34;;;;;;;48.50;23.70;;;;;;;-0.50;93.50;103553.22;5012320;28;20210;-73
2022/02/28 04:54:02;;;;;;;48.37;23.63;;;;;;;-0.59;93.46;103548.06;5011738;28;20452;-74
2022/02/28 04:56:27;;;;;;;47.83;23.90;;;;;;;-0.50;93.73;103546.53;4995705;28;20528;-73
2022/02/28 04:58:53;;;;;;;47.33;24.13;;;;;;;-0.54;93.80;103548.59;5029728;28;20202;-73
2022/02/28 05:01:36;;;;;;;52.00;24.43;;;;;;;-0.54;94.16;103544.44;5047452;28;20247;-74
2022/02/28 05:04:15;;;;;;;51.60;25.97;;;;;;;-0.57;94.49;103545.72;5031664;28;20432;-74
2022/02/28 05:06:41;;;;;;;50.53;25.60;;;;;;;-0.60;94.76;103552.94;5017845;28;20810;-74
2022/02/28 05:09:07;;;;;;;55.57;26.33;;;;;;;-0.58;94.38;103551.50;5035689;28;20476;-73
2022/02/28 05:11:33;;;;;;;53.50;25.50;;;;;;;-0.63;94.60;103550.13;5035613;28;20274;-74
2022/02/28 05:14:01;;;;;;;50.77;23.87;;;;;;;-0.66;94.84;103550.69;5035309;28;20193;-73
2022/02/28 05:16:27;;;;;;;52.27;25.97;;;;;;;-0.65;94.83;103551.56;5032379;28;20815;-74
2022/02/28 05:18:52;;;;;;;54.33;25.60;;;;;;;-0.58;95.18;103546.47;5032151;28;20425;-74
2022/02/28 05:21:17;;;;;;;58.00;26.00;;;;;;;-0.61;95.08;103554.59;5032214;28;20217;-74
2022/02/28 05:23:45;;;;;;;57.43;25.73;;;;;;;-0.52;95.29;103554.66;5031917;28;20247;-73
2022/02/28 05:26:11;;;;;;;53.83;25.67;;;;;;;-0.52;95.00;103557.19;5033028;28;20502;-73
2022/02/28 05:28:36;;;;;;;53.40;25.33;;;;;;;-0.54;95.13;103551.09;5032682;28;20290;-74
2022/02/28 05:31:02;;;;;;;57.53;27.90;;;;;;;-0.54;95.00;103556.13;5032708;28;20673;-74
2022/02/28 05:33:27;;;;;;;49.43;24.40;;;;;;;-0.46;94.91;103547.78;5032831;28;20194;-73
2022/02/28 05:35:54;;;;;;;52.97;25.47;;;;;;;-0.54;95.04;103562.03;5016764;28;20588;-75
2022/02/28 05:38:28;;;;;;;58.33;26.20;;;;;;;-0.57;95.35;103554.19;5025713;28;20425;-73
2022/02/28 05:40:59;;;;;;;59.23;26.53;;;;;;;-0.61;94.93;103562.13;5015974;28;20494;-73
2022/02/28 05:43:30;;;;;;;55.33;25.97;;;;;;;-0.60;95.08;103558.88;5015407;28;21052;-74
2022/02/28 05:45:55;;;;;;;52.33;26.70;;;;;;;-0.57;95.31;103568.38;5015646;28;20468;-74
2022/02/28 05:48:50;;;;;;;59.07;27.13;;;;;;;-0.58;95.29;103570.03;5015244;28;20226;-75
2022/02/28 05:51:19;;;;;;;58.67;26.43;;;;;;;-0.60;95.30;103568.03;5031597;28;21311;-75
2022/02/28 05:53:44;;;;;;;55.33;26.93;;;;;;;-0.50;95.10;103565.81;5032463;28;20436;-73
2022/02/28 05:56:10;;;;;;;56.00;25.87;;;;;;;-0.54;95.12;103566.19;5014776;28;20634;-74
2022/02/28 05:58:35;;;;;;;57.10;25.77;;;;;;;-0.56;94.89;103568.53;5032522;28;20182;-74
2022/02/28 06:01:01;;;;;;;57.73;27.30;;;;;;;-0.50;95.26;103573.34;5031539;28;20606;-74
2022/02/28 06:03:26;;;;;;;59.63;27.47;;;;;;;-0.50;95.48;103569.19;5031341;28;20182;-76
2022/02/28 06:05:51;;;;;;;58.90;28.17;;;;;;;-0.57;95.27;103578.44;5013661;28;20198;-74
2022/02/28 06:08:17;;;;;;;57.03;27.50;;;;;;;-0.54;95.17;103574.63;5013722;28;20271;-74
2022/02/28 06:10:42;;;;;;;56.17;27.97;;;;;;;-0.56;95.66;103581.13;5031266;28;20183;-73
2022/02/28 06:13:08;;;;;;;58.27;27.00;;;;;;;-0.49;95.79;103577.63;5013494;28;20206;-74
2022/02/28 06:15:33;;;;;;;63.37;28.00;;;;;;;-0.45;95.30;103577.25;5031335;28;20261;-74
2022/02/28 06:18:00;;;;;;;63.70;29.50;;;;;;;-0.50;95.74;103583.41;5013001;28;20665;-73
2022/02/28 06:20:25;;;;;;;64.63;30.03;;;;;;;-0.38;95.51;103580.56;5013607;28;20186;-75
2022/02/28 06:22:51;;;;;;;64.23;29.00;;;;;;;-0.41;95.80;103577.72;5031054;28;20445;-74
2022/02/28 06:25:17;;;;;;;66.37;29.00;;;;;;;-0.39;95.25;103581.31;4997052;28;20628;-74
2022/02/28 06:27:43;;;;;;;64.23;29.17;;;;;;;-0.37;95.85;103589.00;5030946;28;20261;-73
2022/02/28 06:30:08;;;;;;;64.27;29.60;;;;;;;-0.32;95.74;103585.38;5030817;28;20532;-75
2022/02/28 06:32:34;;;;;;;65.23;28.90;;;;;;;-0.32;95.08;103590.41;5030735;28;20658;-74
2022/02/28 06:35:01;;;;;;;61.20;28.43;;;;;;;-0.33;95.49;103586.97;5030684;28;20193;-75
2022/02/28 06:37:26;;;;;;;59.87;28.63;;;;;;;-0.38;95.38;103589.72;5030732;28;20515;-71
2022/02/28 06:39:51;;;;;;;69.03;30.77;;;;;;;-0.30;95.15;103592.34;5030750;28;20511;-74
2022/02/28 06:42:16;;;;;;;66.13;29.97;;;;;;;-0.29;95.30;103589.09;5030688;28;20249;-75
2022/02/28 06:44:42;;;;;;;64.27;28.90;;;;;;;-0.27;94.86;103584.22;5012518;28;20252;-74
2022/02/28 06:47:07;;;;;;;63.23;30.13;;;;;;;-0.21;94.76;103593.31;5030799;28;20186;-74
2022/02/28 06:49:33;;;;;;;64.97;29.10;;;;;;;-0.17;94.26;103592.03;5032779;28;20649;-77
2022/02/28 06:51:58;;;;;;;61.20;28.53;;;;;;;-0.19;93.99;103589.34;5036442;28;20218;-74
2022/02/28 06:54:23;;;;;;;61.47;28.07;;;;;;;-0.16;93.97;103592.19;4996314;28;20273;-72
2022/02/28 06:56:49;;;;;;;64.40;28.87;;;;;;;-0.11;93.87;103591.03;5030627;28;20182;-74
2022/02/28 06:59:14;;;;;;;59.97;29.27;;;;;;;-0.02;93.76;103594.53;4995192;28;1018117;-74
2022/02/28 07:01:40;;;;;;;55.43;26.87;;;;;;;-0.10;93.47;103605.41;5013527;28;20195;-76
2022/02/28 07:04:24;;;;;;;53.87;26.70;;;;;;;0.09;93.13;103596.53;5031519;28;20264;-74
2022/02/28 07:06:49;;;;;;;62.67;28.97;;;;;;;0.00;92.74;103603.13;5031153;28;20468;-74
2022/02/28 07:09:14;;;;;;;59.27;27.47;;;;;;;0.03;92.69;103602.56;5031988;28;20202;-73
2022/02/28 07:11:40;;;;;;;55.80;26.30;;;;;;;-0.09;92.23;103603.81;5013992;28;20578;-73
2022/02/28 07:14:06;;;;;;;58.73;27.20;;;;;;;-0.07;93.07;103604.84;5031046;28;20194;-73
2022/02/28 07:16:33;;;;;;;60.83;28.03;;;;;;;-0.06;92.98;103602.50;5025219;28;20225;-73
2022/02/28 07:18:58;;;;;;;58.03;25.97;;;;;;;-0.19;92.61;103604.44;5039210;28;20269;-72
2022/02/28 07:21:24;;;;;;;57.40;27.43;;;;;;;-0.09;93.19;103604.66;5040809;28;20839;-74
2022/02/28 07:23:49;;;;;;;54.03;27.07;;;;;;;-0.09;93.35;103599.63;5032768;28;20191;-73
2022/02/28 07:26:15;;;;;;;59.50;27.97;;;;;;;0.08;92.55;103600.53;5013427;28;20187;-73
2022/02/28 07:28:40;;;;;;;58.87;29.17;;;;;;;0.21;92.74;103601.97;5011574;28;20206;-71
2022/02/28 07:31:05;;;;;;;62.43;30.77;;;;;;;0.26;91.76;103595.78;5012935;28;20202;-73
2022/02/28 07:33:31;;;;;;;60.60;28.43;;;;;;;0.21;91.89;103601.97;5013705;28;20198;-71
2022/02/28 07:35:56;;;;;;;61.57;28.60;;;;;;;0.22;91.32;103595.31;5031594;28;20563;-75
2022/02/28 07:38:21;;;;;;;55.93;27.77;;;;;;;0.27;91.20;103591.66;5031454;28;20244;-73
2022/02/28 07:40:47;;;;;;;57.37;27.27;;;;;;;0.22;91.03;103599.63;5013819;28;20175;-74
2022/02/28 07:43:13;;;;;;;56.93;27.90;;;;;;;0.11;91.11;103600.09;5013280;28;20210;-72
2022/02/28 07:45:39;;;;;;;61.23;29.33;;;;;;;0.32;90.80;103604.88;5046944;28;20197;-76
2022/02/28 07:48:04;;;;;;;57.50;27.63;;;;;;;0.16;91.56;103600.59;5032678;28;20502;-73
2022/02/28 07:50:29;;;;;;;64.87;30.27;;;;;;;0.17;91.10;103605.81;5050348;28;20182;-73
2022/02/28 07:52:55;;;;;;;58.53;28.10;;;;;;;0.16;91.56;103608.16;5038170;28;20214;-76
2022/02/28 07:55:20;;;;;;;65.70;31.00;;;;;;;0.45;91.14;103602.00;5029131;28;20355;-73
2022/02/28 07:57:45;;;;;;;59.30;28.87;;;;;;;0.44;90.82;103602.72;5050164;28;20189;-73
2022/02/28 08:00:12;;;;;;;63.00;29.73;;;;;;;0.67;90.87;103610.13;5049969;28;20284;-73
2022/02/28 08:02:38;;;;;;;57.30;28.83;;;;;;;0.57;90.40;103610.81;5050015;28;20244;-75
2022/02/28 08:05:04;;;;;;;59.30;30.07;;;;;;;0.72;89.51;103604.84;5050166;28;20540;-76
2022/02/28 08:07:29;;;;;;;56.07;27.70;;;;;;;0.84;89.57;103611.16;5050029;28;20186;-73
2022/02/28 08:09:54;;;;;;;55.83;27.70;;;;;;;1.16;88.69;103610.25;5049728;28;20232;-74
2022/02/28 08:12:20;;;;;;;54.53;26.60;;;;;;;1.17;87.50;103613.66;5049865;28;20202;-75
2022/02/28 08:14:45;;;;;;;55.73;26.67;;;;;;;1.09;87.92;103604.44;5049720;28;20189;-73
2022/02/28 08:17:10;;;;;;;56.70;27.37;;;;;;;0.91;88.15;103608.50;5049760;28;20190;-74
2022/02/28 08:19:36;;;;;;;53.33;28.13;;;;;;;1.07;88.48;103605.91;5032406;28;20189;-73
2022/02/28 08:22:01;;;;;;;56.97;27.67;;;;;;;1.19;87.99;103608.03;5032945;28;20900;-74
2022/02/28 08:24:26;;;;;;;54.73;27.27;;;;;;;1.28;87.60;103616.53;5032461;28;20634;-74
2022/02/28 08:26:52;;;;;;;55.60;26.47;;;;;;;1.23;87.66;103616.81;5031828;28;20247;-73
2022/02/28 08:29:17;;;;;;;57.67;28.50;;;;;;;1.04;87.63;103606.50;5031801;28;20218;-74
2022/02/28 08:31:43;;;;;;;52.80;26.17;;;;;;;0.96;88.24;103614.03;5049613;28;20201;-74
2022/02/28 08:34:08;;;;;;;57.03;26.53;;;;;;;1.17;87.73;103624.66;5049727;28;20186;-73
2022/02/28 08:36:34;;;;;;;49.87;25.43;;;;;;;1.27;87.80;103623.94;5049789;28;20198;-74
2022/02/28 08:39:00;;;;;;;51.57;27.07;;;;;;;1.30;87.67;103626.78;5031793;28;20649;-74
2022/02/28 08:41:25;;;;;;;49.63;26.70;;;;;;;1.76;85.98;103618.00;5033738;28;20452;-75
2022/02/28 08:43:51;;;;;;;52.57;25.87;;;;;;;1.63;86.39;103620.94;5031869;28;20721;-75
2022/02/28 08:46:16;;;;;;;53.87;25.13;;;;;;;1.83;84.41;103616.22;5051797;28;20285;-74
2022/02/28 08:48:42;;;;;;;46.70;24.27;;;;;;;2.20;83.89;103613.16;5051378;28;20308;-74
2022/02/28 08:51:07;;;;;;;47.73;24.83;;;;;;;2.19;83.62;103617.28;5050766;28;20186;-74
2022/02/28 08:53:32;;;;;;;48.80;25.30;;;;;;;2.41;82.82;103616.09;5049833;28;20281;-74
2022/02/28 08:55:59;;;;;;;45.47;23.60;;;;;;;2.21;82.80;103619.97;5032045;28;20192;-74
2022/02/28 08:58:24;;;;;;;43.00;22.83;;;;;;;2.82;81.11;103622.56;5031854;28;20205;-74
2022/02/28 09:00:50;;;;;;;39.60;22.23;;;;;;;3.01;80.80;103626.06;5049302;28;20201;-74
2022/02/28 09:03:15;;;;;;;39.93;22.40;;;;;;;3.51;79.26;103622.44;5027973;28;20250;-76
2022/02/28 09:05:41;;;;;;;38.30;22.70;;;;;;;3.46;77.64;103621.13;5011592;28;20194;-75
2022/02/28 09:08:06;;;;;;;40.03;22.33;;;;;;;3.61;77.09;103617.47;5015644;28;20201;-74
2022/02/28 09:10:32;;;;;;;39.00;20.83;;;;;;;3.54;77.44;103620.16;5033772;28;20197;-74
2022/02/28 09:12:58;;;;;;;33.93;20.47;;;;;;;3.96;75.32;103615.59;5030927;28;20224;-76
2022/02/28 09:15:23;;;;;;;34.77;20.30;;;;;;;4.64;74.67;103618.41;5052062;28;20706;-72
2022/02/28 09:17:48;;;;;;;31.37;18.93;;;;;;;5.74;70.33;103608.50;5050547;28;20281;-72
2022/02/28 09:20:14;;;;;;;29.53;19.03;;;;;;;8.27;60.91;103604.03;5044989;28;20665;-72
2022/02/28 09:22:40;;;;;;;29.60;18.70;;;;;;;8.72;57.32;103609.91;5042714;28;20284;-73
2022/02/28 09:25:06;;;;;;;28.70;18.63;;;;;;;8.42;56.33;103603.47;5048533;28;20208;-73
2022/02/28 09:27:32;;;;;;;28.00;18.57;;;;;;;10.67;51.99;103593.47;5048909;28;20181;-71
2022/02/28 09:29:58;;;;;;;25.37;17.57;;;;;;;10.77;50.69;103598.38;5048835;28;20691;-71
2022/02/28 09:32:23;;;;;;;26.40;18.20;;;;;;;11.63;48.23;103596.94;5048701;28;20197;-72
2022/02/28 09:34:49;;;;;;;26.13;17.67;;;;;;;12.61;45.92;103589.75;5030515;28;20193;-73
2022/02/28 09:37:14;;;;;;;25.47;18.87;;;;;;;11.28;47.00;103588.75;5040142;28;20265;-72
2022/02/28 09:39:40;;;;;;;25.93;19.33;;;;;;;12.25;45.72;103601.44;5036694;28;20186;-72
2022/02/28 09:42:42;;;;;;;24.80;17.73;;;;;;;13.09;44.36;103584.75;4986613;28;20552;-73
2022/02/28 09:45:27;;;;;;;24.63;18.90;;;;;;;15.12;40.76;103577.72;5025605;28;20205;-74
2022/02/28 09:48:11;;;;;;;25.80;19.30;;;;;;;14.59;41.66;103582.13;5028541;28;20252;-72
2022/02/28 09:50:37;;;;;;;27.90;19.47;;;;;;;12.85;45.62;103588.50;5011184;28;20217;-72
2022/02/28 09:53:22;;;;;;;33.77;23.83;;;;;;;14.48;40.03;103579.84;5031552;28;20684;-73
2022/02/28 09:56:09;;;;;;;25.27;19.23;;;;;;;16.69;37.72;103587.88;5024104;28;20193;-73
2022/02/28 09:58:53;;;;;;;24.17;17.73;;;;;;;13.43;42.03;103595.09;5033857;28;20233;-73
2022/02/28 10:01:19;;;;;;;24.87;18.80;;;;;;;13.69;42.83;103593.06;5031047;28;20253;-73
2022/02/28 10:03:47;;;;;;;22.80;17.80;;;;;;;15.31;38.85;103587.16;4999217;28;20235;-72
2022/02/28 10:06:14;;;;;;;21.97;17.13;;;;;;;15.52;38.86;103583.84;5014134;28;20568;-71
2022/02/28 10:08:46;;;;;;;22.37;17.90;;;;;;;15.60;38.79;103584.16;5031997;28;20217;-74
2022/02/28 10:11:26;;;;;;;21.87;18.00;;;;;;;18.01;35.04;103580.66;5031967;28;20186;-74
2022/02/28 10:13:53;;;;;;;20.63;16.50;;;;;;;17.26;36.37;103583.16;5014266;28;20190;-74
2022/02/28 10:16:35;;;;;;;21.10;17.37;;;;;;;15.98;35.97;103584.97;5018607;28;20181;-72
2022/02/28 10:19:03;;;;;;;19.60;15.83;;;;;;;18.26;33.86;103572.84;5037276;28;20641;-72
2022/02/28 10:21:36;;;;;;;20.57;15.73;;;;;;;16.97;34.29;103583.81;5031566;28;20201;-73
2022/02/28 10:24:01;;;;;;;18.73;16.07;;;;;;;16.66;35.61;103580.00;5031783;28;20324;-72
2022/02/28 10:26:45;;;;;;;20.27;15.87;;;;;;;17.65;34.59;103581.13;5013899;28;20178;-73
2022/02/28 10:29:32;;;;;;;16.90;14.73;;;;;;;18.56;32.46;103578.16;5031618;28;20306;-73
2022/02/28 10:32:16;;;;;;;18.23;14.77;;;;;;;17.66;34.89;103585.47;5017141;28;20657;-72
2022/02/28 10:37:59;;;;;;;17.53;14.27;;;;;;;17.62;34.75;103584.50;5023895;28;20657;-72
2022/02/28 10:40:34;;;;;;;19.23;15.57;;;;;;;16.98;34.45;103592.44;5047901;28;20201;-73
2022/02/28 10:42:59;;;;;;;16.27;13.43;;;;;;;19.99;33.42;103588.28;5014832;28;20252;-72
2022/02/28 10:45:25;;;;;;;16.83;14.00;;;;;;;18.51;33.30;103584.91;5032683;28;20281;-72
2022/02/28 10:47:53;;;;;;;14.17;12.23;;;;;;;19.66;31.68;103575.31;5031773;28;20196;-72
2022/02/28 10:50:38;;;;;;;17.37;14.47;;;;;;;18.87;32.48;103578.22;5031945;28;20198;-72
2022/02/28 10:53:10;;;;;;;15.60;13.43;;;;;;;21.59;28.50;103570.13;5031358;28;20202;-72
2022/02/28 10:55:35;;;;;;;14.00;12.43;;;;;;;21.73;28.49;103560.84;5014342;28;20214;-72
2022/02/28 10:58:05;;;;;;;13.73;12.20;;;;;;;21.45;28.42;103567.28;5036066;28;20214;-74
2022/02/28 11:00:31;;;;;;;15.60;13.03;;;;;;;20.88;28.85;103560.91;5040048;28;20193;-74
2022/02/28 11:03:05;;;;;;;15.07;13.37;;;;;;;19.53;30.05;103575.81;5012479;28;20589;-73
2022/02/28 11:05:30;;;;;;;15.20;13.60;;;;;;;18.81;30.77;103573.75;5012944;28;20190;-74
2022/02/28 11:07:58;;;;;;;14.00;12.40;;;;;;;21.55;28.79;103565.69;5013136;28;20650;-77
2022/02/28 11:10:23;;;;;;;13.80;12.03;;;;;;;19.71;28.99;103572.84;5031065;28;20193;-73
2022/02/28 11:12:49;;;;;;;14.27;12.77;;;;;;;19.57;29.86;103577.66;5030928;28;20202;-72
2022/02/28 11:15:21;;;;;;;13.53;12.13;;;;;;;21.25;27.58;103571.25;5023597;28;20665;-73
2022/02/28 11:17:47;;;;;;;14.40;12.87;;;;;;;19.39;29.45;103574.56;5013070;28;20222;-73